Mount Baldy, California
Current Conditions -  °F | °C
As of 4:53 AM on Friday 24 Oct 2014 (Local Time) from KONT Reporting Station
Clear Clear  
Wind Chill: 61°   Ceiling: Unl
Heat Index: 61°   Visibility: 10mi
Dew Point: 43°   Wind: 3mph
Humidity: 52%   Direction: 30°NNE
Pressure: 29.98"   Gusts: NA
Location:  34.24°N, 117.66°W
Report Text: KONT 241153Z 03003KT 10SM CLR 16/06 A2998 RMK AO2 SLP136 T01610061 10222 20156 55002
Loading
Personal Weather Stations






























Interactive Weather Map
Tropical Storm Tracking
New forecast layout! Learn more

10-Day Weather Forecast

Advertisements
Track Severe Weather on mobile